sensor_id;sensor_type;location;lat;lon;timestamp;pressure;altitude;pressure_sealevel;temperature;humidity
57900;BME280;60605;53.716;19.940;2023-03-23T00:01:04;99514.14;;;10.21;100.00
57900;BME280;60605;53.716;19.940;2023-03-23T00:06:08;99510.88;;;10.25;100.00
57900;BME280;60605;53.716;19.940;2023-03-23T00:11:11;99507.38;;;10.28;100.00
57900;BME280;60605;53.716;19.940;2023-03-23T00:16:15;99504.79;;;10.27;100.00
57900;BME280;60605;53.716;19.940;2023-03-23T00:21:21;99499.87;;;10.26;100.00
57900;BME280;60605;53.716;19.940;2023-03-23T00:26:36;99497.13;;;10.25;100.00
57900;BME280;60605;53.716;19.940;2023-03-23T00:31:42;99497.11;;;10.25;100.00
57900;BME280;60605;53.716;19.940;2023-03-23T00:36:52;99489.55;;;10.24;100.00
57900;BME280;60605;53.716;19.940;2023-03-23T00:41:57;99488.23;;;10.22;100.00
57900;BME280;60605;53.716;19.940;2023-03-23T00:47:02;99480.69;;;10.19;100.00
57900;BME280;60605;53.716;19.940;2023-03-23T00:52:05;99479.79;;;10.16;100.00
57900;BME280;60605;53.716;19.940;2023-03-23T00:57:07;99473.91;;;10.14;100.00
57900;BME280;60605;53.716;19.940;2023-03-23T01:02:09;99474.52;;;10.10;100.00
57900;BME280;60605;53.716;19.940;2023-03-23T01:07:11;99471.89;;;10.06;100.00
57900;BME280;60605;53.716;19.940;2023-03-23T01:12:15;99470.08;;;10.05;100.00
57900;BME280;60605;53.716;19.940;2023-03-23T01:17:17;99462.11;;;10.03;100.00
57900;BME280;60605;53.716;19.940;2023-03-23T01:22:19;99458.70;;;10.00;100.00
57900;BME280;60605;53.716;19.940;2023-03-23T01:27:21;99453.28;;;9.96;100.00
57900;BME280;60605;53.716;19.940;2023-03-23T01:32:22;99458.45;;;9.91;100.00
57900;BME280;60605;53.716;19.940;2023-03-23T01:37:24;99458.17;;;9.87;100.00
57900;BME280;60605;53.716;19.940;2023-03-23T01:42:32;99455.11;;;9.86;100.00
57900;BME280;60605;53.716;19.940;2023-03-23T01:47:34;99450.98;;;9.86;100.00
57900;BME280;60605;53.716;19.940;2023-03-23T01:52:36;99445.20;;;9.87;100.00
57900;BME280;60605;53.716;19.940;2023-03-23T01:57:37;99437.80;;;9.86;100.00
57900;BME280;60605;53.716;19.940;2023-03-23T02:02:39;99439.01;;;9.83;100.00
57900;BME280;60605;53.716;19.940;2023-03-23T02:07:40;99442.89;;;9.76;100.00
57900;BME280;60605;53.716;19.940;2023-03-23T02:12:42;99446.00;;;9.65;100.00
57900;BME280;60605;53.716;19.940;2023-03-23T02:33:38;99426.45;;;9.42;100.00
57900;BME280;60605;53.716;19.940;2023-03-23T02:38:54;99422.70;;;9.39;100.00
57900;BME280;60605;53.716;19.940;2023-03-23T02:43:57;99419.14;;;9.36;100.00
57900;BME280;60605;53.716;19.940;2023-03-23T02:49:02;99418.17;;;9.35;100.00
57900;BME280;60605;53.716;19.940;2023-03-23T02:54:07;99417.23;;;9.35;100.00
57900;BME280;60605;53.716;19.940;2023-03-23T02:59:12;99414.33;;;9.32;100.00
57900;BME280;60605;53.716;19.940;2023-03-23T03:04:15;99406.92;;;9.27;100.00
57900;BME280;60605;53.716;19.940;2023-03-23T03:20:02;99355.85;;;9.20;100.00
57900;BME280;60605;53.716;19.940;2023-03-23T03:25:12;99344.59;;;9.19;100.00
57900;BME280;60605;53.716;19.940;2023-03-23T03:30:17;99341.61;;;9.18;100.00
57900;BME280;60605;53.716;19.940;2023-03-23T03:35:22;99358.61;;;9.19;100.00
57900;BME280;60605;53.716;19.940;2023-03-23T03:40:25;99367.06;;;9.18;100.00
57900;BME280;60605;53.716;19.940;2023-03-23T03:45:26;99365.39;;;9.16;100.00
57900;BME280;60605;53.716;19.940;2023-03-23T03:50:27;99358.73;;;9.08;100.00
57900;BME280;60605;53.716;19.940;2023-03-23T03:55:29;99357.48;;;8.98;100.00
57900;BME280;60605;53.716;19.940;2023-03-23T04:00:36;99361.73;;;8.85;100.00
57900;BME280;60605;53.716;19.940;2023-03-23T04:05:37;99357.06;;;8.71;100.00
57900;BME280;60605;53.716;19.940;2023-03-23T04:10:39;99357.59;;;8.58;100.00
57900;BME280;60605;53.716;19.940;2023-03-23T04:15:42;99357.02;;;8.46;100.00
57900;BME280;60605;53.716;19.940;2023-03-23T04:20:46;99357.15;;;8.37;100.00
57900;BME280;60605;53.716;19.940;2023-03-23T04:25:49;99358.77;;;8.28;100.00
57900;BME280;60605;53.716;19.940;2023-03-23T04:30:53;99355.90;;;8.19;100.00
57900;BME280;60605;53.716;19.940;2023-03-23T04:35:56;99350.37;;;8.07;100.00
57900;BME280;60605;53.716;19.940;2023-03-23T04:40:58;99344.08;;;7.96;100.00
57900;BME280;60605;53.716;19.940;2023-03-23T04:46:02;99335.90;;;7.84;100.00
57900;BME280;60605;53.716;19.940;2023-03-23T04:51:09;99331.53;;;7.78;100.00
57900;BME280;60605;53.716;19.940;2023-03-23T04:56:11;99333.52;;;7.80;100.00
57900;BME280;60605;53.716;19.940;2023-03-23T05:01:14;99331.95;;;7.81;100.00
57900;BME280;60605;53.716;19.940;2023-03-23T05:06:16;99338.59;;;7.80;100.00
57900;BME280;60605;53.716;19.940;2023-03-23T05:11:17;99346.94;;;7.84;100.00
57900;BME280;60605;53.716;19.940;2023-03-23T05:16:18;99351.59;;;7.99;100.00
57900;BME280;60605;53.716;19.940;2023-03-23T05:21:19;99353.11;;;8.20;100.00
57900;BME280;60605;53.716;19.940;2023-03-23T05:26:23;99349.79;;;8.39;100.00
57900;BME280;60605;53.716;19.940;2023-03-23T05:31:29;99355.23;;;8.58;100.00
57900;BME280;60605;53.716;19.940;2023-03-23T05:36:31;99352.08;;;8.79;100.00
57900;BME280;60605;53.716;19.940;2023-03-23T05:41:32;99352.35;;;9.00;100.00
57900;BME280;60605;53.716;19.940;2023-03-23T05:46:34;99350.73;;;9.27;100.00
57900;BME280;60605;53.716;19.940;2023-03-23T05:51:35;99352.00;;;9.59;100.00
57900;BME280;60605;53.716;19.940;2023-03-23T05:56:37;99347.67;;;10.21;100.00
57900;BME280;60605;53.716;19.940;2023-03-23T06:01:39;99344.45;;;12.35;100.00
57900;BME280;60605;53.716;19.940;2023-03-23T06:06:40;99348.33;;;14.06;98.60
57900;BME280;60605;53.716;19.940;2023-03-23T06:11:43;99345.37;;;14.52;93.40
57900;BME280;60605;53.716;19.940;2023-03-23T06:16:45;99342.33;;;15.80;88.83
57900;BME280;60605;53.716;19.940;2023-03-23T06:21:46;99342.94;;;17.74;80.43
57900;BME280;60605;53.716;19.940;2023-03-23T06:26:48;99346.11;;;19.28;72.64
57900;BME280;60605;53.716;19.940;2023-03-23T06:31:56;99346.50;;;19.70;69.52
57900;BME280;60605;53.716;19.940;2023-03-23T06:36:58;99341.05;;;18.75;68.04
57900;BME280;60605;53.716;19.940;2023-03-23T06:42:00;99342.52;;;17.51;70.91
57900;BME280;60605;53.716;19.940;2023-03-23T06:47:01;99330.79;;;16.62;72.70
57900;BME280;60605;53.716;19.940;2023-03-23T06:52:03;99333.59;;;16.03;73.64
57900;BME280;60605;53.716;19.940;2023-03-23T06:57:05;99335.74;;;15.62;74.95
57900;BME280;60605;53.716;19.940;2023-03-23T07:02:09;99335.05;;;15.24;76.22
57900;BME280;60605;53.716;19.940;2023-03-23T07:07:12;99337.23;;;14.87;77.43
57900;BME280;60605;53.716;19.940;2023-03-23T07:12:15;99333.55;;;14.42;78.88
57900;BME280;60605;53.716;19.940;2023-03-23T07:17:16;99329.36;;;14.04;80.38
57900;BME280;60605;53.716;19.940;2023-03-23T07:22:18;99319.56;;;13.68;81.53
57900;BME280;60605;53.716;19.940;2023-03-23T07:27:19;99315.15;;;13.45;82.89
57900;BME280;60605;53.716;19.940;2023-03-23T07:32:21;99296.31;;;13.60;83.67
57900;BME280;60605;53.716;19.940;2023-03-23T07:37:23;99285.80;;;13.98;83.06
57900;BME280;60605;53.716;19.940;2023-03-23T07:42:25;99273.36;;;14.61;81.03
57900;BME280;60605;53.716;19.940;2023-03-23T07:47:26;99256.61;;;16.45;79.99
57900;BME280;60605;53.716;19.940;2023-03-23T07:52:27;99253.55;;;20.64;70.37
57900;BME280;60605;53.716;19.940;2023-03-23T07:57:29;99269.80;;;21.50;61.86
57900;BME280;60605;53.716;19.940;2023-03-23T08:02:32;99265.36;;;20.28;59.41
57900;BME280;60605;53.716;19.940;2023-03-23T08:07:34;99262.68;;;18.89;61.10
57900;BME280;60605;53.716;19.940;2023-03-23T08:12:36;99255.33;;;17.96;64.36
57900;BME280;60605;53.716;19.940;2023-03-23T08:17:39;99252.59;;;17.73;66.08
57900;BME280;60605;53.716;19.940;2023-03-23T08:22:43;99256.02;;;18.08;66.83
57900;BME280;60605;53.716;19.940;2023-03-23T08:27:46;99232.02;;;19.02;63.26
57900;BME280;60605;53.716;19.940;2023-03-23T08:32:48;99243.04;;;20.86;59.67
57900;BME280;60605;53.716;19.940;2023-03-23T08:37:50;99245.23;;;22.88;55.07
57900;BME280;60605;53.716;19.940;2023-03-23T08:42:53;99237.08;;;23.58;52.01
57900;BME280;60605;53.716;19.940;2023-03-23T08:47:55;99243.48;;;25.51;49.70
57900;BME280;60605;53.716;19.940;2023-03-23T08:52:57;99249.65;;;28.38;44.29
57900;BME280;60605;53.716;19.940;2023-03-23T08:57:59;99246.74;;;29.34;38.75
57900;BME280;60605;53.716;19.940;2023-03-23T09:03:02;99251.27;;;28.36;38.03
57900;BME280;60605;53.716;19.940;2023-03-23T09:08:05;99249.13;;;26.54;39.07
57900;BME280;60605;53.716;19.940;2023-03-23T09:13:07;99241.75;;;24.47;41.27
57900;BME280;60605;53.716;19.940;2023-03-23T09:18:09;99234.21;;;22.74;45.95
57900;BME280;60605;53.716;19.940;2023-03-23T09:23:10;99229.73;;;21.63;48.62
57900;BME280;60605;53.716;19.940;2023-03-23T09:28:14;99233.21;;;20.81;51.11
57900;BME280;60605;53.716;19.940;2023-03-23T09:33:16;99222.52;;;20.49;52.08
57900;BME280;60605;53.716;19.940;2023-03-23T09:38:17;99215.08;;;20.43;52.27
57900;BME280;60605;53.716;19.940;2023-03-23T09:43:40;99210.84;;;20.49;52.36
57900;BME280;60605;53.716;19.940;2023-03-23T09:48:53;99205.67;;;20.48;51.65
57900;BME280;60605;53.716;19.940;2023-03-23T09:54:03;99203.66;;;20.25;51.57
57900;BME280;60605;53.716;19.940;2023-03-23T09:59:16;99205.35;;;19.89;52.44
57900;BME280;60605;53.716;19.940;2023-03-23T10:04:32;99208.88;;;19.63;53.18
57900;BME280;60605;53.716;19.940;2023-03-23T10:09:35;99212.09;;;19.11;53.91
57900;BME280;60605;53.716;19.940;2023-03-23T10:14:42;99207.81;;;18.65;54.72
57900;BME280;60605;53.716;19.940;2023-03-23T10:30:33;99205.49;;;17.85;57.51
57900;BME280;60605;53.716;19.940;2023-03-23T10:35:43;99200.36;;;17.78;58.07
57900;BME280;60605;53.716;19.940;2023-03-23T10:40:56;99203.25;;;17.74;58.53
57900;BME280;60605;53.716;19.940;2023-03-23T10:46:22;99212.65;;;17.68;59.13
57900;BME280;60605;53.716;19.940;2023-03-23T10:51:36;99212.30;;;17.59;59.55
57900;BME280;60605;53.716;19.940;2023-03-23T10:56:41;99212.46;;;17.44;59.94
57900;BME280;60605;53.716;19.940;2023-03-23T11:01:45;99221.14;;;17.31;60.69
57900;BME280;60605;53.716;19.940;2023-03-23T11:06:51;99232.83;;;17.17;61.24
57900;BME280;60605;53.716;19.940;2023-03-23T11:11:54;99241.45;;;17.12;62.05
57900;BME280;60605;53.716;19.940;2023-03-23T11:17:21;99252.52;;;17.03;62.04
57900;BME280;60605;53.716;19.940;2023-03-23T11:22:28;99253.64;;;16.82;61.80
57900;BME280;60605;53.716;19.940;2023-03-23T11:27:31;99257.00;;;16.62;62.27
57900;BME280;60605;53.716;19.940;2023-03-23T11:32:33;99260.26;;;16.34;62.98
57900;BME280;60605;53.716;19.940;2023-03-23T11:37:43;99262.33;;;16.08;64.08
57900;BME280;60605;53.716;19.940;2023-03-23T11:58:50;99276.10;;;15.07;70.52
57900;BME280;60605;53.716;19.940;2023-03-23T12:09:16;99285.23;;;14.61;73.67
57900;BME280;60605;53.716;19.940;2023-03-23T12:15:03;99286.87;;;14.34;75.49
57900;BME280;60605;53.716;19.940;2023-03-23T12:30:42;99280.85;;;13.86;80.69
57900;BME280;60605;53.716;19.940;2023-03-23T12:41:18;99274.98;;;13.66;82.88
57900;BME280;60605;53.716;19.940;2023-03-23T12:57:12;99280.52;;;13.52;85.23
57900;BME280;60605;53.716;19.940;2023-03-23T13:02:24;99285.59;;;13.49;86.08
57900;BME280;60605;53.716;19.940;2023-03-23T13:07:31;99283.84;;;13.58;87.18
57900;BME280;60605;53.716;19.940;2023-03-23T13:12:35;99280.50;;;13.72;88.00
57900;BME280;60605;53.716;19.940;2023-03-23T13:28:21;99280.56;;;14.08;87.87
57900;BME280;60605;53.716;19.940;2023-03-23T13:33:35;99273.15;;;14.09;87.47
57900;BME280;60605;53.716;19.940;2023-03-23T13:38:38;99277.05;;;14.09;87.15
57900;BME280;60605;53.716;19.940;2023-03-23T13:43:47;99281.06;;;14.17;87.25
57900;BME280;60605;53.716;19.940;2023-03-23T13:49:04;99287.61;;;14.27;86.98
57900;BME280;60605;53.716;19.940;2023-03-23T13:59:46;99284.01;;;14.08;86.59
57900;BME280;60605;53.716;19.940;2023-03-23T14:04:49;99287.75;;;13.96;87.25
57900;BME280;60605;53.716;19.940;2023-03-23T14:09:51;99283.05;;;13.86;87.62
57900;BME280;60605;53.716;19.940;2023-03-23T14:15:02;99269.18;;;13.71;87.80
57900;BME280;60605;53.716;19.940;2023-03-23T14:20:19;99263.02;;;13.52;88.40
57900;BME280;60605;53.716;19.940;2023-03-23T14:25:29;99264.02;;;13.34;89.52
57900;BME280;60605;53.716;19.940;2023-03-23T14:30:36;99274.36;;;13.19;90.68
57900;BME280;60605;53.716;19.940;2023-03-23T14:35:41;99281.89;;;13.15;91.74
57900;BME280;60605;53.716;19.940;2023-03-23T14:40:43;99281.67;;;13.17;92.13
57900;BME280;60605;53.716;19.940;2023-03-23T14:45:52;99277.24;;;13.22;92.55
57900;BME280;60605;53.716;19.940;2023-03-23T14:50:59;99277.83;;;13.32;92.50
57900;BME280;60605;53.716;19.940;2023-03-23T14:56:11;99275.73;;;13.40;92.25
57900;BME280;60605;53.716;19.940;2023-03-23T15:01:20;99273.11;;;13.47;92.32
57900;BME280;60605;53.716;19.940;2023-03-23T15:06:28;99271.23;;;13.50;91.98
57900;BME280;60605;53.716;19.940;2023-03-23T15:11:33;99267.27;;;13.53;91.90
57900;BME280;60605;53.716;19.940;2023-03-23T15:16:36;99267.48;;;13.54;91.57
57900;BME280;60605;53.716;19.940;2023-03-23T15:26:49;99263.69;;;13.44;91.11
57900;BME280;60605;53.716;19.940;2023-03-23T15:31:54;99264.05;;;13.35;91.07
57900;BME280;60605;53.716;19.940;2023-03-23T15:37:04;99262.25;;;13.25;91.16
57900;BME280;60605;53.716;19.940;2023-03-23T15:42:20;99269.20;;;13.16;91.18
57900;BME280;60605;53.716;19.940;2023-03-23T15:47:32;99264.83;;;13.05;91.19
57900;BME280;60605;53.716;19.940;2023-03-23T15:52:35;99261.91;;;12.93;91.35
57900;BME280;60605;53.716;19.940;2023-03-23T15:57:36;99267.64;;;12.82;91.54
57900;BME280;60605;53.716;19.940;2023-03-23T16:02:38;99267.37;;;12.72;91.69
57900;BME280;60605;53.716;19.940;2023-03-23T16:07:40;99263.90;;;12.66;91.70
57900;BME280;60605;53.716;19.940;2023-03-23T16:12:43;99266.11;;;12.60;91.85
57900;BME280;60605;53.716;19.940;2023-03-23T16:17:46;99273.98;;;12.54;91.85
57900;BME280;60605;53.716;19.940;2023-03-23T16:22:50;99278.18;;;12.49;91.87
57900;BME280;60605;53.716;19.940;2023-03-23T16:27:53;99278.49;;;12.48;92.13
57900;BME280;60605;53.716;19.940;2023-03-23T16:32:56;99278.00;;;12.52;92.18
57900;BME280;60605;53.716;19.940;2023-03-23T16:37:59;99283.80;;;12.56;91.88
57900;BME280;60605;53.716;19.940;2023-03-23T16:43:10;99297.48;;;12.53;91.69
57900;BME280;60605;53.716;19.940;2023-03-23T16:48:14;99297.27;;;12.46;92.00
57900;BME280;60605;53.716;19.940;2023-03-23T16:53:17;99296.90;;;12.35;92.51
57900;BME280;60605;53.716;19.940;2023-03-23T16:58:20;99303.15;;;12.27;92.92
57900;BME280;60605;53.716;19.940;2023-03-23T17:03:22;99297.38;;;12.21;93.21
57900;BME280;60605;53.716;19.940;2023-03-23T17:08:25;99287.81;;;12.17;93.44
57900;BME280;60605;53.716;19.940;2023-03-23T17:13:28;99289.35;;;12.15;93.57
57900;BME280;60605;53.716;19.940;2023-03-23T17:18:31;99291.85;;;12.11;93.74
57900;BME280;60605;53.716;19.940;2023-03-23T17:23:33;99306.17;;;12.07;94.13
57900;BME280;60605;53.716;19.940;2023-03-23T17:28:36;99315.80;;;12.03;94.47
57900;BME280;60605;53.716;19.940;2023-03-23T17:33:39;99313.11;;;11.98;94.60
57900;BME280;60605;53.716;19.940;2023-03-23T17:38:41;99309.59;;;11.93;94.83
57900;BME280;60605;53.716;19.940;2023-03-23T17:43:44;99312.48;;;11.89;95.03
57900;BME280;60605;53.716;19.940;2023-03-23T17:48:47;99309.64;;;11.84;95.52
57900;BME280;60605;53.716;19.940;2023-03-23T17:53:49;99303.94;;;11.81;95.94
57900;BME280;60605;53.716;19.940;2023-03-23T17:58:53;99302.84;;;11.77;96.20
57900;BME280;60605;53.716;19.940;2023-03-23T18:03:56;99314.45;;;11.73;96.72
57900;BME280;60605;53.716;19.940;2023-03-23T18:08:58;99313.61;;;11.71;97.02
57900;BME280;60605;53.716;19.940;2023-03-23T18:14:00;99309.59;;;11.67;97.21
57900;BME280;60605;53.716;19.940;2023-03-23T18:19:02;99314.55;;;11.63;97.33
57900;BME280;60605;53.716;19.940;2023-03-23T18:24:05;99315.52;;;11.61;97.51
57900;BME280;60605;53.716;19.940;2023-03-23T18:29:10;99318.08;;;11.57;97.87
57900;BME280;60605;53.716;19.940;2023-03-23T18:34:15;99319.75;;;11.54;97.91
57900;BME280;60605;53.716;19.940;2023-03-23T18:39:18;99318.14;;;11.51;98.30
57900;BME280;60605;53.716;19.940;2023-03-23T18:44:22;99317.96;;;11.48;98.31
57900;BME280;60605;53.716;19.940;2023-03-23T18:49:26;99311.61;;;11.44;98.38
57900;BME280;60605;53.716;19.940;2023-03-23T18:54:30;99317.39;;;11.39;98.44
57900;BME280;60605;53.716;19.940;2023-03-23T18:59:37;99320.05;;;11.33;98.60
57900;BME280;60605;53.716;19.940;2023-03-23T19:04:45;99326.11;;;11.28;98.85
57900;BME280;60605;53.716;19.940;2023-03-23T19:09:49;99330.45;;;11.24;99.54
57900;BME280;60605;53.716;19.940;2023-03-23T19:14:53;99321.38;;;11.24;99.98
57900;BME280;60605;53.716;19.940;2023-03-23T19:19:57;99328.64;;;11.26;100.00
57900;BME280;60605;53.716;19.940;2023-03-23T19:25:02;99327.77;;;11.29;100.00
57900;BME280;60605;53.716;19.940;2023-03-23T19:30:10;99324.58;;;11.30;100.00
57900;BME280;60605;53.716;19.940;2023-03-23T19:35:17;99341.63;;;11.31;100.00
57900;BME280;60605;53.716;19.940;2023-03-23T19:40:24;99354.07;;;11.35;100.00
57900;BME280;60605;53.716;19.940;2023-03-23T19:45:42;99357.48;;;11.39;100.00
57900;BME280;60605;53.716;19.940;2023-03-23T19:50:46;99364.35;;;11.46;100.00
57900;BME280;60605;53.716;19.940;2023-03-23T19:55:54;99375.85;;;11.57;100.00
57900;BME280;60605;53.716;19.940;2023-03-23T20:00:58;99366.68;;;11.65;100.00
57900;BME280;60605;53.716;19.940;2023-03-23T20:06:05;99363.63;;;11.67;99.96
57900;BME280;60605;53.716;19.940;2023-03-23T20:11:11;99383.77;;;11.65;99.76
57900;BME280;60605;53.716;19.940;2023-03-23T20:16:16;99412.63;;;11.61;99.52
57900;BME280;60605;53.716;19.940;2023-03-23T20:21:20;99419.65;;;11.57;99.69
57900;BME280;60605;53.716;19.940;2023-03-23T20:26:32;99423.05;;;11.56;99.76
57900;BME280;60605;53.716;19.940;2023-03-23T20:31:38;99436.47;;;11.54;99.96
57900;BME280;60605;53.716;19.940;2023-03-23T20:36:43;99438.33;;;11.48;100.00
57900;BME280;60605;53.716;19.940;2023-03-23T20:41:46;99444.99;;;11.38;100.00
57900;BME280;60605;53.716;19.940;2023-03-23T20:46:52;99443.02;;;11.22;100.00
57900;BME280;60605;53.716;19.940;2023-03-23T20:51:56;99445.73;;;11.03;100.00
57900;BME280;60605;53.716;19.940;2023-03-23T20:57:00;99451.69;;;10.86;100.00
57900;BME280;60605;53.716;19.940;2023-03-23T21:02:04;99457.52;;;10.69;100.00
57900;BME280;60605;53.716;19.940;2023-03-23T21:07:11;99460.73;;;10.55;100.00
57900;BME280;60605;53.716;19.940;2023-03-23T21:12:14;99456.45;;;10.44;100.00
57900;BME280;60605;53.716;19.940;2023-03-23T21:17:17;99452.89;;;10.35;100.00
57900;BME280;60605;53.716;19.940;2023-03-23T21:22:20;99454.08;;;10.27;100.00
57900;BME280;60605;53.716;19.940;2023-03-23T21:27:23;99453.52;;;10.21;100.00
57900;BME280;60605;53.716;19.940;2023-03-23T21:32:25;99468.13;;;10.15;100.00
57900;BME280;60605;53.716;19.940;2023-03-23T21:37:28;99483.68;;;10.10;100.00
57900;BME280;60605;53.716;19.940;2023-03-23T21:42:31;99481.02;;;10.05;100.00
57900;BME280;60605;53.716;19.940;2023-03-23T21:47:36;99474.48;;;9.99;100.00
57900;BME280;60605;53.716;19.940;2023-03-23T21:52:38;99473.20;;;9.95;100.00
57900;BME280;60605;53.716;19.940;2023-03-23T21:57:43;99478.54;;;9.92;100.00
57900;BME280;60605;53.716;19.940;2023-03-23T22:02:46;99474.29;;;9.88;100.00
57900;BME280;60605;53.716;19.940;2023-03-23T22:07:48;99452.08;;;9.86;100.00
57900;BME280;60605;53.716;19.940;2023-03-23T22:12:51;99445.46;;;9.83;100.00
57900;BME280;60605;53.716;19.940;2023-03-23T22:17:56;99435.27;;;9.78;100.00
57900;BME280;60605;53.716;19.940;2023-03-23T22:22:58;99433.16;;;9.72;100.00
57900;BME280;60605;53.716;19.940;2023-03-23T22:28:01;99425.31;;;9.65;100.00
57900;BME280;60605;53.716;19.940;2023-03-23T22:33:05;99438.89;;;9.57;100.00
57900;BME280;60605;53.716;19.940;2023-03-23T22:38:06;99447.46;;;9.50;100.00
57900;BME280;60605;53.716;19.940;2023-03-23T22:43:08;99452.10;;;9.47;100.00
57900;BME280;60605;53.716;19.940;2023-03-23T22:48:10;99455.54;;;9.47;100.00
57900;BME280;60605;53.716;19.940;2023-03-23T22:53:13;99462.58;;;9.47;100.00
57900;BME280;60605;53.716;19.940;2023-03-23T22:58:16;99462.64;;;9.49;100.00
57900;BME280;60605;53.716;19.940;2023-03-23T23:03:18;99455.23;;;9.50;100.00
57900;BME280;60605;53.716;19.940;2023-03-23T23:08:21;99446.33;;;9.51;100.00
57900;BME280;60605;53.716;19.940;2023-03-23T23:13:23;99443.32;;;9.52;100.00
57900;BME280;60605;53.716;19.940;2023-03-23T23:18:26;99439.45;;;9.54;100.00
57900;BME280;60605;53.716;19.940;2023-03-23T23:23:29;99446.04;;;9.54;100.00
57900;BME280;60605;53.716;19.940;2023-03-23T23:28:31;99444.79;;;9.52;100.00
57900;BME280;60605;53.716;19.940;2023-03-23T23:33:32;99442.71;;;9.48;100.00
57900;BME280;60605;53.716;19.940;2023-03-23T23:38:34;99438.79;;;9.43;100.00
57900;BME280;60605;53.716;19.940;2023-03-23T23:43:36;99444.64;;;9.39;100.00
57900;BME280;60605;53.716;19.940;2023-03-23T23:48:38;99446.86;;;9.33;100.00
57900;BME280;60605;53.716;19.940;2023-03-23T23:53:41;99445.52;;;9.24;100.00
57900;BME280;60605;53.716;19.940;2023-03-23T23:58:44;99453.64;;;9.12;100.00
